CheckWX is a tool to help pilots better visualize weather data.  It is not intended as a substitute for an official pre-flight weather briefing.

06:15:18 UTC

KMGC METAR
Michigan City Municipal-Phillips Field Airport
Michigan City, Indiana, USA
Current

20 mins ago

KMGC 140555Z AUTO 22009KT 7SM -SN SCT031 BKN037 OVC055 M03/M04 A3012 RMK AO2
Observed
Nov-14 @ 05:55 UTC
Wind
  • 220° at 9 KTS
Visibility
7 SM
Flight Rules
VFR
Conditions
Light Snow
Cloud Levels
  • Scattered at 3,100' AGL
  • Broken at 3,700' AGL
  • Overcast at 5,500' AGL
Temperature
-3°C / 27°F
Dewpoint
-4°C / 25°F
Humidity
93%
Altimeter
30.12" Hg
Pressure
1020.02 hPa
Previous

40 mins ago

KMGC 140535Z AUTO 23005KT 10SM BKN046 OVC060 M02/M05 A3011 RMK AO2
Observed
Nov-14 @ 05:35 UTC
Wind
  • 230° at 5 KTS
Visibility
10 SM
Flight Rules
VFR
Cloud Levels
  • Broken at 4,600' AGL
  • Overcast at 6,000' AGL
Temperature
-2°C / 28°F
Dewpoint
-5°C / 23°F
Humidity
80%
Altimeter
30.11" Hg
Pressure
1019.62 hPa
Previous

60 mins ago

KMGC 140515Z AUTO 22006KT 10SM -SN OVC048 M02/M05 A3011 RMK AO2
Observed
Nov-14 @ 05:15 UTC
Wind
  • 220° at 6 KTS
Visibility
10 SM
Flight Rules
VFR
Conditions
Light Snow
Cloud Levels
  • Overcast at 4,800' AGL
Temperature
-2°C / 28°F
Dewpoint
-5°C / 23°F
Humidity
80%
Altimeter
30.11" Hg
Pressure
1019.62 hPa